Friend, NE (68359)

12:39 PM CDT on August 17, 2017 (GMT -0500)
3 Miles East of Friend | | Change Station
Active Advisory: Flood Warning

Elev 1531 ft 40.66 °N, 97.22 °W | Updated 2 seconds ago

Clear
Clear
77.9 °F
Feels Like 80 °F
N
10.6
Wind Variable Wind from WNW
Gusts 13.8 mph

Today
High -- | Low -- °F
--% Chance of Precip.
Yesterday
High -- | Low -- °F
Precip. -- in
Pressure 30.01 in
Visibility 10.0 miles
Clouds Clear
Heat Index 80 °F
Dew Point 62 °F
Humidity 58%
Rainfall 0.00 in
Snow Depth Not available.
6:41 AM 8:23 PM
Waning Crescent, 21% visible
METAR KJYR 171735Z AUTO 31008KT 10SM CLR 24/15 A3001 RMK AO2
Pressure 30.01 in
Visibility 10.0 miles
Clouds Clear
Heat Index 80 °F
Dew Point 62 °F
Humidity 58%
Rainfall 0.00 in
Snow Depth Not available.
6:41 AM 8:23 PM
Waning Crescent, 21% visible
METAR KJYR 171735Z AUTO 31008KT 10SM CLR 24/15 A3001 RMK AO2

Get Your Daily Forecast Email!

Thanks for signing up!

Be on the lookout for a verification email in your inbox.

You'll start receiving severe weather alerts in your inbox..

×

10-Day Weather Forecast

Almanac

Astronomy

Aug. 17, 2017 Rise Set
Actual Time
Civil Twilight
Nautical Twilight
Astronomical Twilight
Moon
Length of Visible Light
Length of Day
Tomorrow will be .
, % of the Moon is Illuminated

Today's Extremes

State Highs State Lows

Community

WunderPhotos

Category 6

Welcome to Category 6. This is the collective home for Weather Underground's featured writeups by Dr. Jeff Masters (right), Bob Henson (left), Chris Burt, and other regular contributors.

Nearby

Air Quality

  Air Quality AQ Index Pollutant
Not available.

Snow Depth

Station Depth Elevation

Earthquake Activity

City Distance Mag. Time & Date
Minimum magnitude displayed is 2.5.

Coastal Water Temperatures

Place Temperature

Stations

Nearby Weather Stations

Station Location Temp. Windchill Dew Point Humidity Wind Precip. Elev Updated Type
                   

Watches & Warnings

Flood Warning
Issued: 8:46 AM CDT Aug. 17, 2017 – National Weather Service

The Flood Warning continues for
the big Blue River near Crete.
* From late Friday night to Monday afternoon... or until the warning
is cancelled.
* At 7:45 am Thursday the stage was 8.9 feet... or 12.1 feet below
flood stage.
* Flood stage is 21.0 feet.
* Minor flooding is forecast.
* Forecast... rise above flood stage by Saturday morning and continue
to rise to near 23.0 feet by early Sunday morning. The river will
fall below flood stage by Sunday before midnight.


Lat... Lon 4070 9702 4070 9695 4039 9685 4037 9690
      4042 9697